createdAt,value
2023-09-05T00:00:30.707Z,98682.69
2023-09-05T00:01:37.190Z,98692.34
2023-09-05T00:02:48.646Z,98693.06
2023-09-05T00:03:54.234Z,98698.53
2023-09-05T00:05:03.248Z,98689.38
2023-09-05T00:06:11.877Z,98680.84
2023-09-05T00:07:16.915Z,98679.56
2023-09-05T00:08:20.291Z,98700.69
2023-09-05T00:09:23.308Z,98707.00
2023-09-05T00:10:34.928Z,98696.88
2023-09-05T00:11:40.404Z,98689.88
2023-09-05T00:14:11.198Z,98688.31
2023-09-05T00:15:22.431Z,98701.19
2023-09-05T00:16:34.712Z,98702.97
2023-09-05T00:17:40.754Z,98690.50
2023-09-05T00:18:45.385Z,98711.38
2023-09-05T00:19:53.390Z,98699.28
2023-09-05T00:20:58.624Z,98710.69
2023-09-05T00:22:01.849Z,98706.72
2023-09-05T00:23:08.140Z,98694.47
2023-09-05T00:24:37.730Z,98710.59
2023-09-05T00:25:41.092Z,98701.47
2023-09-05T00:26:47.367Z,98707.00
2023-09-05T00:27:50.508Z,98707.59
2023-09-05T00:28:56.140Z,98711.25
2023-09-05T00:30:01.409Z,98712.00
2023-09-05T00:31:09.701Z,98697.88
2023-09-05T00:32:23.542Z,98686.75
2023-09-05T00:33:26.807Z,98707.25
2023-09-05T00:34:44.062Z,98721.16
2023-09-05T00:35:54.790Z,98704.59
2023-09-05T00:36:59.681Z,98729.16
2023-09-05T00:38:02.522Z,98711.16
2023-09-05T00:39:06.875Z,98718.88
2023-09-05T00:40:13.747Z,98722.31
2023-09-05T00:41:17.313Z,98710.06
2023-09-05T00:42:24.684Z,98734.41
2023-09-05T00:43:30.459Z,98716.53
2023-09-05T00:44:39.981Z,98733.88
2023-09-05T00:45:55.439Z,98723.47
2023-09-05T00:47:12.884Z,98715.75
2023-09-05T00:48:33.396Z,98713.56
2023-09-05T00:49:42.940Z,98729.94
2023-09-05T00:50:55.548Z,98727.59
2023-09-05T00:52:06.333Z,98720.91
2023-09-05T00:53:15.892Z,98727.59
2023-09-05T00:54:51.056Z,98720.91
2023-09-05T00:55:57.857Z,98706.09
2023-09-05T00:57:04.980Z,98725.28
2023-09-05T00:58:07.935Z,98718.56
2023-09-05T00:59:23.062Z,98717.78
2023-09-05T01:00:35.676Z,98731.19
2023-09-05T01:01:51.682Z,98728.31
2023-09-05T01:02:59.193Z,98715.59
2023-09-05T01:04:20.929Z,98716.78
2023-09-05T01:05:35.231Z,98728.94
2023-09-05T01:07:02.989Z,98728.63
2023-09-05T01:08:19.941Z,98717.00
2023-09-05T01:10:12.928Z,98707.00
2023-09-05T01:11:16.762Z,98715.91
2023-09-05T01:12:22.884Z,98720.59
2023-09-05T01:13:35.483Z,98717.16
2023-09-05T01:14:41.550Z,98724.03
2023-09-05T01:15:51.734Z,98733.41
2023-09-05T01:17:40.908Z,98729.94
2023-09-05T01:18:46.214Z,98724.25
2023-09-05T01:19:56.242Z,98741.34
2023-09-05T01:21:27.272Z,98724.34
2023-09-05T01:22:45.132Z,98736.97
2023-09-05T01:24:02.288Z,98729.84
2023-09-05T01:25:07.267Z,98727.34
2023-09-05T01:26:10.989Z,98726.25
2023-09-05T01:27:19.104Z,98729.25
2023-09-05T01:28:24.480Z,98734.66
2023-09-05T01:29:37.932Z,98729.06
2023-09-05T01:30:43.300Z,98730.91
2023-09-05T01:31:46.954Z,98722.66
2023-09-05T01:32:50.123Z,98729.06
2023-09-05T01:33:53.755Z,98734.31
2023-09-05T01:34:56.554Z,98730.41
2023-09-05T01:35:59.237Z,98729.16
2023-09-05T01:37:02.093Z,98731.50
2023-09-05T01:38:05.001Z,98716.38
2023-09-05T01:39:07.879Z,98724.44
2023-09-05T01:40:11.211Z,98724.97
2023-09-05T01:41:14.053Z,98718.81
2023-09-05T01:42:16.771Z,98718.03
2023-09-05T01:43:19.660Z,98719.06
2023-09-05T01:44:22.307Z,98732.94
2023-09-05T01:45:24.939Z,98717.97
2023-09-05T01:46:27.739Z,98722.66
2023-09-05T01:47:30.391Z,98726.69
2023-09-05T01:48:33.094Z,98712.16
2023-09-05T01:49:35.844Z,98721.94
2023-09-05T01:50:38.633Z,98719.81
2023-09-05T01:51:41.572Z,98720.28
2023-09-05T01:52:44.243Z,98715.47
2023-09-05T01:53:47.169Z,98729.34
2023-09-05T01:54:50.179Z,98724.88
2023-09-05T01:55:53.173Z,98712.50
2023-09-05T01:56:56.025Z,98723.88
2023-09-05T01:57:58.726Z,98723.88
2023-09-05T01:59:01.388Z,98723.88
2023-09-05T02:00:04.560Z,98728.22
2023-09-05T02:01:16.245Z,98723.72
2023-09-05T02:02:19.022Z,98732.59
2023-09-05T02:03:21.801Z,98723.56
2023-09-05T02:04:24.615Z,98724.34
2023-09-05T02:05:27.349Z,98727.34
2023-09-05T02:06:30.129Z,98733.69
2023-09-05T02:07:32.833Z,98740.06
2023-09-05T02:08:36.173Z,98736.81
2023-09-05T02:09:38.924Z,98737.34
2023-09-05T02:10:41.631Z,98741.25
2023-09-05T02:11:44.634Z,98733.63
2023-09-05T02:12:47.685Z,98737.28
2023-09-05T02:13:50.466Z,98743.53
2023-09-05T02:14:53.123Z,98740.97
2023-09-05T02:15:56.029Z,98744.31
2023-09-05T02:17:00.246Z,98743.06
2023-09-05T02:18:03.729Z,98746.09
2023-09-05T02:19:06.774Z,98753.81
2023-09-05T02:20:10.402Z,98751.94
2023-09-05T02:21:18.012Z,98747.25
2023-09-05T02:22:23.515Z,98739.31
2023-09-05T02:23:27.987Z,98745.78
2023-09-05T02:24:31.639Z,98743.53
2023-09-05T02:25:35.146Z,98748.69
2023-09-05T02:26:40.695Z,98749.75
2023-09-05T02:27:45.457Z,98750.00
2023-09-05T02:28:48.275Z,98759.97
2023-09-05T02:29:57.450Z,98746.63
2023-09-05T02:31:09.149Z,98748.19
2023-09-05T02:32:13.693Z,98749.75
2023-09-05T02:33:18.073Z,98749.66
2023-09-05T02:34:20.915Z,98748.88
2023-09-05T02:35:28.571Z,98745.94
2023-09-05T02:36:32.304Z,98739.69
2023-09-05T02:37:35.559Z,98747.13
2023-09-05T02:38:38.982Z,98732.91
2023-09-05T02:39:43.040Z,98735.47
2023-09-05T02:40:47.808Z,98741.97
2023-09-05T02:41:51.187Z,98729.34
2023-09-05T02:42:54.320Z,98729.25
2023-09-05T02:43:59.633Z,98733.06
2023-09-05T02:45:03.108Z,98730.13
2023-09-05T02:46:05.954Z,98733.22
2023-09-05T02:47:08.883Z,98733.78
2023-09-05T02:48:11.793Z,98737.13
2023-09-05T02:49:14.755Z,98734.31
2023-09-05T02:50:17.719Z,98731.19
2023-09-05T02:51:20.659Z,98734.50
2023-09-05T02:52:37.965Z,98738.38
2023-09-05T02:53:50.210Z,98745.09
2023-09-05T02:54:53.426Z,98745.09
2023-09-05T02:55:56.284Z,98742.41
2023-09-05T02:56:59.220Z,98748.03
2023-09-05T02:58:03.514Z,98753.97
2023-09-05T02:59:06.506Z,98749.59
2023-09-05T03:00:10.147Z,98752.16
2023-09-05T03:01:13.906Z,98752.72
2023-09-05T03:02:17.326Z,98738.06
2023-09-05T03:03:20.246Z,98743.19
2023-09-05T03:04:23.032Z,98758.09
2023-09-05T03:05:27.597Z,98747.81
2023-09-05T03:06:30.600Z,98741.81
2023-09-05T03:07:34.069Z,98753.66
2023-09-05T03:08:38.063Z,98741.81
2023-09-05T03:09:41.985Z,98747.16
2023-09-05T03:10:44.850Z,98755.66
2023-09-05T03:11:48.145Z,98750.22
2023-09-05T03:12:50.898Z,98762.78
2023-09-05T03:13:53.746Z,98764.00
2023-09-05T03:14:56.587Z,98759.09
2023-09-05T03:16:00.512Z,98755.44
2023-09-05T03:17:04.685Z,98764.69
2023-09-05T03:18:07.424Z,98759.00
2023-09-05T03:19:13.201Z,98754.25
2023-09-05T03:20:16.955Z,98752.22
2023-09-05T03:21:21.227Z,98757.34
2023-09-05T03:22:23.974Z,98745.97
2023-09-05T03:23:26.890Z,98750.09
2023-09-05T03:24:29.922Z,98755.03
2023-09-05T03:25:32.663Z,98757.81
2023-09-05T03:26:35.364Z,98755.31
2023-09-05T03:27:38.018Z,98753.78
2023-09-05T03:28:47.452Z,98752.22
2023-09-05T03:29:56.575Z,98756.34
2023-09-05T03:30:59.263Z,98754.78
2023-09-05T03:32:03.249Z,98744.97
2023-09-05T03:33:07.283Z,98750.00
2023-09-05T03:34:10.263Z,98753.59
2023-09-05T03:35:13.125Z,98752.03
2023-09-05T03:36:15.783Z,98749.22
2023-09-05T03:37:18.748Z,98748.91
2023-09-05T03:38:21.732Z,98756.53
2023-09-05T03:39:28.503Z,98759.56
2023-09-05T03:40:31.673Z,98756.66
2023-09-05T03:41:34.425Z,98769.66
2023-09-05T03:42:37.238Z,98776.06
2023-09-05T03:43:39.835Z,98767.00
2023-09-05T03:44:42.631Z,98768.25
2023-09-05T03:45:49.600Z,98771.28
2023-09-05T03:46:52.541Z,98780.78
2023-09-05T03:48:01.389Z,98775.94
2023-09-05T03:49:05.067Z,98771.91
2023-09-05T03:50:09.117Z,98769.91
2023-09-05T03:51:11.766Z,98774.28
2023-09-05T03:52:14.414Z,98771.69
2023-09-05T03:53:17.229Z,98769.34
2023-09-05T03:54:20.607Z,98776.59
2023-09-05T03:55:23.417Z,98770.22
2023-09-05T03:56:26.489Z,98773.81
2023-09-05T03:57:29.113Z,98780.19
2023-09-05T03:58:32.976Z,98778.63
2023-09-05T03:59:36.080Z,98778.63
2023-09-05T04:00:38.775Z,98778.63
2023-09-05T04:01:41.601Z,98775.03
2023-09-05T04:02:44.446Z,98781.53
2023-09-05T04:03:47.340Z,98775.03
2023-09-05T04:04:50.114Z,98780.50
2023-09-05T04:05:53.860Z,98780.81
2023-09-05T04:06:56.497Z,98772.91
2023-09-05T04:07:59.317Z,98782.94
2023-09-05T04:09:01.905Z,98788.88
2023-09-05T04:10:05.197Z,98779.91
2023-09-05T04:11:08.520Z,98783.81
2023-09-05T04:12:11.230Z,98793.84
2023-09-05T04:13:14.026Z,98789.28
2023-09-05T04:14:16.737Z,98797.25
2023-09-05T04:15:22.833Z,98800.25
2023-09-05T04:16:25.548Z,98800.78
2023-09-05T04:17:29.153Z,98789.72
2023-09-05T04:18:35.117Z,98786.84
2023-09-05T04:19:38.930Z,98790.19
2023-09-05T04:20:41.627Z,98788.63
2023-09-05T04:21:44.327Z,98780.03
2023-09-05T04:22:47.026Z,98776.69
2023-09-05T04:23:49.650Z,98779.59
2023-09-05T04:24:56.791Z,98772.44
2023-09-05T04:26:02.819Z,98783.72
2023-09-05T04:27:05.818Z,98784.28
2023-09-05T04:28:10.191Z,98780.72
2023-09-05T04:29:12.951Z,98787.19
2023-09-05T04:30:15.866Z,98787.97
2023-09-05T04:31:20.827Z,98785.97
2023-09-05T04:32:32.431Z,98785.75
2023-09-05T04:33:39.248Z,98782.72
2023-09-05T04:34:42.663Z,98796.59
2023-09-05T04:35:45.654Z,98799.22
2023-09-05T04:36:48.358Z,98794.88
2023-09-05T04:37:52.365Z,98792.09
2023-09-05T04:38:55.041Z,98799.81
2023-09-05T04:39:57.691Z,98794.09
2023-09-05T04:41:04.195Z,98795.22
2023-09-05T04:42:07.223Z,98793.97
2023-09-05T04:43:09.813Z,98791.16
2023-09-05T04:44:12.747Z,98791.16
2023-09-05T04:45:15.562Z,98791.94
2023-09-05T04:46:18.207Z,98793.84
2023-09-05T04:47:23.934Z,98791.34
2023-09-05T04:48:26.885Z,98784.97
2023-09-05T04:49:29.910Z,98794.78
2023-09-05T04:50:32.589Z,98789.97
2023-09-05T04:51:35.233Z,98799.03
2023-09-05T04:52:38.123Z,98798.22
2023-09-05T04:53:40.962Z,98804.94
2023-09-05T04:54:43.877Z,98805.38
2023-09-05T04:55:46.717Z,98810.53
2023-09-05T04:56:49.344Z,98816.16
2023-09-05T04:57:52.089Z,98811.56
2023-09-05T04:58:54.779Z,98822.38
2023-09-05T05:00:01.344Z,98812.88
2023-09-05T05:01:04.717Z,98809.94
2023-09-05T05:02:07.748Z,98812.84
2023-09-05T05:03:11.075Z,98813.38
2023-09-05T05:04:14.035Z,98818.44
2023-09-05T05:05:16.941Z,98808.72
2023-09-05T05:06:19.600Z,98805.44
2023-09-05T05:07:22.428Z,98820.88
2023-09-05T05:08:25.496Z,98817.63
2023-09-05T05:09:28.303Z,98817.16
2023-09-05T05:10:35.004Z,98817.69
2023-09-05T05:11:37.692Z,98824.41
2023-09-05T05:12:40.374Z,98824.50
2023-09-05T05:13:43.258Z,98817.88
2023-09-05T05:14:45.931Z,98825.38
2023-09-05T05:15:48.998Z,98816.44
2023-09-05T05:16:51.847Z,98813.91
2023-09-05T05:17:54.676Z,98823.78
2023-09-05T05:18:57.736Z,98822.50
2023-09-05T05:20:00.428Z,98831.03
2023-09-05T05:21:03.116Z,98833.06
2023-09-05T05:22:07.128Z,98829.75
2023-09-05T05:23:09.810Z,98836.22
2023-09-05T05:24:12.712Z,98832.19
2023-09-05T05:25:15.466Z,98831.25
2023-09-05T05:26:18.172Z,98837.50
2023-09-05T05:27:21.016Z,98834.78
2023-09-05T05:28:23.910Z,98826.09
2023-09-05T05:29:27.263Z,98831.19
2023-09-05T05:30:30.164Z,98837.03
2023-09-05T05:31:34.905Z,98838.09
2023-09-05T05:32:37.517Z,98838.78
2023-09-05T05:33:40.219Z,98842.00
2023-09-05T05:34:43.048Z,98840.09
2023-09-05T05:35:45.794Z,98846.34
2023-09-05T05:36:48.436Z,98840.53
2023-09-05T05:37:51.094Z,98836.56
2023-09-05T05:38:54.282Z,98828.38
2023-09-05T05:39:56.950Z,98829.94
2023-09-05T05:40:59.785Z,98830.03
2023-09-05T05:42:02.453Z,98824.66
2023-09-05T05:43:05.235Z,98827.25
2023-09-05T05:44:07.948Z,98829.75
2023-09-05T05:45:11.512Z,98833.53
2023-09-05T05:46:15.647Z,98830.19
2023-09-05T05:47:18.365Z,98831.22
2023-09-05T05:48:21.009Z,98839.38
2023-09-05T05:49:23.979Z,98841.91
2023-09-05T05:50:26.664Z,98840.16
2023-09-05T05:51:29.416Z,98848.16
2023-09-05T05:52:32.211Z,98843.59
2023-09-05T05:53:34.979Z,98840.56
2023-09-05T05:54:37.810Z,98838.44
2023-09-05T05:55:40.729Z,98829.97
2023-09-05T05:56:43.339Z,98826.88
2023-09-05T05:57:45.977Z,98823.03
2023-09-05T05:58:49.600Z,98820.41
2023-09-05T05:59:52.296Z,98828.16
2023-09-05T06:00:55.002Z,98823.31
2023-09-05T06:01:58.447Z,98825.31
2023-09-05T06:03:01.585Z,98823.97
2023-09-05T06:04:04.768Z,98824.78
2023-09-05T06:05:09.200Z,98832.13
2023-09-05T06:06:11.975Z,98838.25
2023-09-05T06:07:14.605Z,98837.09
2023-09-05T06:08:18.416Z,98840.72
2023-09-05T06:09:21.160Z,98836.56
2023-09-05T06:10:23.842Z,98836.16
2023-09-05T06:11:26.529Z,98840.78
2023-09-05T06:12:29.327Z,98839.69
2023-09-05T06:13:32.198Z,98837.88
2023-09-05T06:14:34.961Z,98834.44
2023-09-05T06:15:37.661Z,98838.53
2023-09-05T06:16:40.529Z,98836.28
2023-09-05T06:17:43.404Z,98835.19
2023-09-05T06:18:46.103Z,98839.28
2023-09-05T06:19:48.782Z,98831.44
2023-09-05T06:20:51.389Z,98837.66
2023-09-05T06:21:54.211Z,98851.88
2023-09-05T06:22:56.817Z,98843.97
2023-09-05T06:23:59.905Z,98848.06
2023-09-05T06:25:03.279Z,98847.09
2023-09-05T06:26:05.909Z,98860.19
2023-09-05T06:27:08.712Z,98860.13
2023-09-05T06:28:11.504Z,98858.56
2023-09-05T06:29:14.253Z,98862.78
2023-09-05T06:30:17.759Z,98863.91
2023-09-05T06:31:21.716Z,98865.06
2023-09-05T06:32:24.499Z,98866.84
2023-09-05T06:33:27.483Z,98863.38
2023-09-05T06:34:30.112Z,98865.72
2023-09-05T06:35:33.957Z,98862.63
2023-09-05T06:36:39.163Z,98857.47
2023-09-05T06:37:44.177Z,98860.88
2023-09-05T06:38:46.969Z,98864.28
2023-09-05T06:39:49.560Z,98855.63
2023-09-05T06:40:52.280Z,98864.38
2023-09-05T06:41:56.462Z,98867.50
2023-09-05T06:43:09.579Z,98864.38
2023-09-05T06:44:12.502Z,98864.91
2023-09-05T06:45:15.207Z,98859.34
2023-09-05T06:46:17.859Z,98863.25
2023-09-05T06:47:20.569Z,98866.03
2023-09-05T06:48:23.373Z,98857.25
2023-09-05T06:49:26.085Z,98863.97
2023-09-05T06:50:28.827Z,98862.13
2023-09-05T06:51:32.227Z,98860.75
2023-09-05T06:52:35.048Z,98866.19
2023-09-05T06:53:37.903Z,98855.63
2023-09-05T06:54:40.689Z,98870.69
2023-09-05T06:55:43.563Z,98874.84
2023-09-05T06:56:46.251Z,98874.91
2023-09-05T06:57:48.930Z,98875.69
2023-09-05T06:58:51.759Z,98876.94
2023-09-05T06:59:54.822Z,98880.84
2023-09-05T07:00:57.577Z,98875.31
2023-09-05T07:02:00.230Z,98870.16
2023-09-05T07:03:03.189Z,98868.28
2023-09-05T07:04:06.343Z,98872.13
2023-09-05T07:05:09.317Z,98870.66
2023-09-05T07:06:12.123Z,98871.81
2023-09-05T07:07:14.877Z,98872.84
2023-09-05T07:08:17.815Z,98869.13
2023-09-05T07:09:20.579Z,98874.59
2023-09-05T07:10:23.198Z,98884.75
2023-09-05T07:11:25.829Z,98885.34
2023-09-05T07:12:28.489Z,98883.97
2023-09-05T07:13:31.215Z,98881.50
2023-09-05T07:14:34.059Z,98879.84
2023-09-05T07:15:36.795Z,98886.09
2023-09-05T07:16:39.552Z,98883.97
2023-09-05T07:17:42.674Z,98884.22
2023-09-05T07:18:45.862Z,98878.97
2023-09-05T07:19:49.128Z,98880.00
2023-09-05T07:20:52.899Z,98872.88
2023-09-05T07:21:55.653Z,98869.38
2023-09-05T07:22:58.366Z,98873.03
2023-09-05T07:24:00.965Z,98881.84
2023-09-05T07:25:04.001Z,98884.44
2023-09-05T07:26:08.543Z,98883.19
2023-09-05T07:27:12.072Z,98888.22
2023-09-05T07:28:14.786Z,98887.78
2023-09-05T07:29:17.610Z,98897.13
2023-09-05T07:30:21.645Z,98894.53
2023-09-05T07:31:26.847Z,98892.72
2023-09-05T07:32:29.636Z,98892.72
2023-09-05T07:33:32.711Z,98896.84
2023-09-05T07:34:35.511Z,98894.81
2023-09-05T07:35:38.312Z,98891.75
2023-09-05T07:36:41.646Z,98891.53
2023-09-05T07:37:44.484Z,98886.06
2023-09-05T07:38:47.520Z,98894.19
2023-09-05T07:39:51.935Z,98891.63
2023-09-05T07:41:05.228Z,98888.50
2023-09-05T07:42:08.124Z,98885.66
2023-09-05T07:43:10.830Z,98887.50
2023-09-05T07:44:13.507Z,98888.03
2023-09-05T07:45:16.260Z,98889.59
2023-09-05T07:46:19.070Z,98887.78
2023-09-05T07:47:21.759Z,98893.72
2023-09-05T07:48:25.478Z,98880.00
2023-09-05T07:49:28.526Z,98894.50
2023-09-05T07:50:31.239Z,98888.00
2023-09-05T07:51:33.930Z,98883.38
2023-09-05T07:52:37.683Z,98885.97
2023-09-05T07:53:40.931Z,98880.53
2023-09-05T07:54:43.872Z,98873.50
2023-09-05T07:55:46.593Z,98871.41
2023-09-05T07:56:49.250Z,98871.38
2023-09-05T07:57:52.783Z,98870.28
2023-09-05T07:58:55.381Z,98871.00
2023-09-05T07:59:58.129Z,98861.94
2023-09-05T08:01:01.233Z,98865.78
2023-09-05T08:02:05.840Z,98868.81
2023-09-05T08:03:08.702Z,98875.50
2023-09-05T08:04:11.594Z,98870.69
2023-09-05T08:05:14.977Z,98874.88
2023-09-05T08:06:17.757Z,98871.97
2023-09-05T08:07:20.544Z,98877.66
2023-09-05T08:08:24.566Z,98871.19
2023-09-05T08:09:27.698Z,98872.78
2023-09-05T08:10:30.451Z,98866.22
2023-09-05T08:11:33.105Z,98858.38
2023-09-05T08:12:35.990Z,98861.44
2023-09-05T08:13:38.770Z,98865.78
2023-09-05T08:14:41.586Z,98876.69
2023-09-05T08:15:46.275Z,98866.16
2023-09-05T08:16:48.914Z,98859.72
2023-09-05T08:17:51.701Z,98851.84
2023-09-05T08:18:54.567Z,98859.06
2023-09-05T08:19:58.499Z,98851.25
2023-09-05T08:21:02.309Z,98854.41
2023-09-05T08:22:06.586Z,98854.50
2023-09-05T08:23:09.387Z,98849.34
2023-09-05T08:24:12.199Z,98845.78
2023-09-05T08:25:16.853Z,98849.50
2023-09-05T08:26:20.120Z,98843.81
2023-09-05T08:27:29.581Z,98843.19
2023-09-05T08:28:37.042Z,98844.00
2023-09-05T08:29:39.802Z,98847.38
2023-09-05T08:30:42.482Z,98850.00
2023-09-05T08:31:46.227Z,98847.03
2023-09-05T08:32:48.990Z,98841.94
2023-09-05T08:33:51.921Z,98839.28
2023-09-05T08:34:54.658Z,98836.91
2023-09-05T08:35:57.402Z,98839.94
2023-09-05T08:37:01.166Z,98836.56
2023-09-05T08:38:05.628Z,98837.50
2023-09-05T08:39:08.375Z,98827.34
2023-09-05T08:40:11.757Z,98831.72
2023-09-05T08:41:14.637Z,98831.16
2023-09-05T08:42:17.450Z,98820.94
2023-09-05T08:43:20.523Z,98826.00
2023-09-05T08:44:24.981Z,98828.75
2023-09-05T08:45:31.004Z,98826.78
2023-09-05T08:46:35.396Z,98824.25
2023-09-05T08:47:38.086Z,98815.56
2023-09-05T08:48:54.471Z,98817.44
2023-09-05T08:50:00.679Z,98822.91
2023-09-05T08:51:08.855Z,98809.00
2023-09-05T08:52:16.773Z,98817.13
2023-09-05T08:53:31.825Z,98813.56
2023-09-05T08:54:34.698Z,98813.63
2023-09-05T08:55:42.841Z,98811.94
2023-09-05T08:56:46.075Z,98817.34
2023-09-05T08:57:51.372Z,98814.53
2023-09-05T08:58:56.427Z,98811.81
2023-09-05T09:00:05.682Z,98815.53
2023-09-05T09:01:08.437Z,98814.22
2023-09-05T09:02:18.322Z,98807.31
2023-09-05T09:03:21.425Z,98812.66
2023-09-05T09:04:24.667Z,98819.06
2023-09-05T09:05:29.500Z,98822.53
2023-09-05T09:06:34.040Z,98818.34
2023-09-05T09:07:37.140Z,98823.94
2023-09-05T09:08:45.269Z,98814.19
2023-09-05T09:09:48.001Z,98819.59
2023-09-05T09:11:10.420Z,98812.47
2023-09-05T09:12:13.291Z,98818.59
2023-09-05T09:13:20.664Z,98816.06
2023-09-05T09:14:25.011Z,98809.78
2023-09-05T09:15:28.290Z,98815.38
2023-09-05T09:16:32.425Z,98813.94
2023-09-05T09:17:35.290Z,98817.91
2023-09-05T09:18:42.044Z,98810.91
2023-09-05T09:19:44.842Z,98810.53
2023-09-05T09:20:51.639Z,98808.91
2023-09-05T09:21:54.426Z,98815.88
2023-09-05T09:22:57.186Z,98822.03
2023-09-05T09:24:08.079Z,98816.94
2023-09-05T09:25:16.333Z,98809.78
2023-09-05T09:26:19.088Z,98812.94
2023-09-05T09:27:26.660Z,98809.41
2023-09-05T09:28:35.815Z,98818.09
2023-09-05T09:29:41.114Z,98811.78
2023-09-05T09:30:45.533Z,98827.19
2023-09-05T09:31:48.697Z,98821.75
2023-09-05T09:32:56.017Z,98826.00
2023-09-05T09:33:59.349Z,98821.56
2023-09-05T09:36:53.573Z,98831.28
2023-09-05T09:37:56.882Z,98832.66
2023-09-05T09:39:00.016Z,98827.75
2023-09-05T09:40:08.296Z,98824.81
2023-09-05T09:41:13.153Z,98827.13
2023-09-05T09:42:26.787Z,98827.69
2023-09-05T09:43:37.602Z,98822.56
2023-09-05T09:44:40.307Z,98822.16
2023-09-05T09:45:43.134Z,98827.50
2023-09-05T09:46:46.325Z,98832.78
2023-09-05T09:47:53.136Z,98827.38
2023-09-05T09:49:00.141Z,98827.56
2023-09-05T09:50:04.082Z,98826.13
2023-09-05T09:51:08.126Z,98824.19
2023-09-05T09:52:16.740Z,98825.13
2023-09-05T09:53:37.958Z,98826.63
2023-09-05T09:54:42.933Z,98824.00
2023-09-05T09:55:46.879Z,98821.88
2023-09-05T09:56:50.188Z,98813.97
2023-09-05T09:58:19.566Z,98819.94
2023-09-05T09:59:28.512Z,98814.59
2023-09-05T10:00:34.167Z,98819.25
2023-09-05T10:01:41.654Z,98817.97
2023-09-05T10:02:50.742Z,98809.16
2023-09-05T10:03:55.093Z,98812.69
2023-09-05T10:04:58.527Z,98808.06
2023-09-05T10:06:05.692Z,98802.28
2023-09-05T10:07:12.361Z,98801.38
2023-09-05T10:08:16.178Z,98809.16
2023-09-05T10:09:21.557Z,98802.81
2023-09-05T10:10:25.331Z,98810.63
2023-09-05T10:11:29.093Z,98808.75
2023-09-05T10:12:32.764Z,98807.00
2023-09-05T10:13:36.713Z,98804.78
2023-09-05T10:14:41.994Z,98794.34
2023-09-05T10:15:49.150Z,98806.59
2023-09-05T10:16:53.222Z,98803.63
2023-09-05T10:17:57.528Z,98806.31
2023-09-05T10:19:01.307Z,98806.59
2023-09-05T10:20:06.098Z,98796.09
2023-09-05T10:21:10.693Z,98804.94
2023-09-05T10:22:18.432Z,98794.47
2023-09-05T10:23:25.107Z,98799.22
2023-09-05T10:24:34.176Z,98805.53
2023-09-05T10:25:38.190Z,98794.09
2023-09-05T10:26:41.003Z,98786.03
2023-09-05T10:27:44.121Z,98800.66
2023-09-05T10:28:48.020Z,98808.31
2023-09-05T10:29:51.057Z,98807.47
2023-09-05T10:31:05.590Z,98805.34
2023-09-05T10:32:08.723Z,98800.38
2023-09-05T10:33:14.193Z,98807.09
2023-09-05T10:34:16.859Z,98801.97
2023-09-05T10:35:21.587Z,98809.41
2023-09-05T10:36:44.180Z,98809.78
2023-09-05T10:38:01.080Z,98804.69
2023-09-05T10:39:28.502Z,98807.16
2023-09-05T10:40:36.526Z,98802.84
2023-09-05T10:41:39.247Z,98807.53
2023-09-05T10:42:55.366Z,98811.53
2023-09-05T10:44:02.100Z,98809.78
2023-09-05T10:45:22.743Z,98806.47
2023-09-05T10:46:25.559Z,98812.28
2023-09-05T10:47:34.360Z,98796.88
2023-09-05T10:48:42.312Z,98797.06
2023-09-05T10:49:48.205Z,98786.31
2023-09-05T10:51:14.357Z,98787.63
2023-09-05T10:52:20.798Z,98778.97
2023-09-05T10:53:24.663Z,98783.03
2023-09-05T10:54:30.239Z,98783.06
2023-09-05T10:55:41.482Z,98778.91
2023-09-05T10:56:45.469Z,98786.19
2023-09-05T10:57:51.746Z,98775.88
2023-09-05T10:58:57.183Z,98773.19
2023-09-05T11:00:00.181Z,98771.84
2023-09-05T11:01:03.023Z,98767.34
2023-09-05T11:02:07.735Z,98769.91
2023-09-05T11:03:15.691Z,98774.06
2023-09-05T11:04:31.577Z,98765.19
2023-09-05T11:05:35.981Z,98762.44
2023-09-05T11:06:39.013Z,98773.03
2023-09-05T11:07:44.499Z,98762.41
2023-09-05T11:09:00.485Z,98760.03
2023-09-05T11:10:03.192Z,98763.25
2023-09-05T11:11:06.105Z,98761.63
2023-09-05T11:12:10.550Z,98763.22
2023-09-05T11:13:17.241Z,98762.16
2023-09-05T11:14:34.741Z,98757.03
2023-09-05T11:15:44.904Z,98760.75
2023-09-05T11:16:53.330Z,98756.22
2023-09-05T11:18:05.537Z,98753.94
2023-09-05T11:19:08.180Z,98752.59
2023-09-05T11:20:11.719Z,98748.97
2023-09-05T11:21:25.085Z,98740.66
2023-09-05T11:22:28.049Z,98749.41
2023-09-05T11:23:31.066Z,98746.41
2023-09-05T11:24:33.926Z,98751.94
2023-09-05T11:25:47.807Z,98748.94
2023-09-05T11:26:50.530Z,98758.47
2023-09-05T11:27:59.453Z,98763.38
2023-09-05T11:29:03.167Z,98762.13
2023-09-05T11:30:08.147Z,98765.28
2023-09-05T11:31:12.957Z,98761.25
2023-09-05T11:32:16.085Z,98745.88
2023-09-05T11:33:20.654Z,98756.72
2023-09-05T11:34:23.672Z,98755.44
2023-09-05T11:35:32.940Z,98747.84
2023-09-05T11:36:38.750Z,98742.84
2023-09-05T11:37:42.108Z,98744.03
2023-09-05T11:38:51.721Z,98747.81
2023-09-05T11:39:55.706Z,98748.75
2023-09-05T11:41:06.442Z,98747.13
2023-09-05T11:42:32.141Z,98748.66
2023-09-05T11:43:36.477Z,98744.75
2023-09-05T11:44:39.806Z,98739.97
2023-09-05T11:45:44.977Z,98739.91
2023-09-05T11:46:48.013Z,98749.81
2023-09-05T11:47:53.001Z,98743.56
2023-09-05T11:49:01.611Z,98745.34
2023-09-05T11:50:07.045Z,98743.44
2023-09-05T11:51:11.362Z,98731.41
2023-09-05T11:52:14.943Z,98732.06
2023-09-05T11:53:21.125Z,98728.66
2023-09-05T11:54:24.005Z,98728.63
2023-09-05T11:55:27.435Z,98733.81
2023-09-05T11:56:31.526Z,98727.19
2023-09-05T11:57:35.097Z,98729.59
2023-09-05T11:58:38.346Z,98732.53
2023-09-05T11:59:41.542Z,98726.50
2023-09-05T12:00:46.608Z,98720.69
2023-09-05T12:01:49.486Z,98726.50
2023-09-05T12:02:54.481Z,98725.09
2023-09-05T12:04:07.039Z,98723.06
2023-09-05T12:05:10.918Z,98730.53
2023-09-05T12:06:13.650Z,98731.03
2023-09-05T12:07:16.923Z,98728.84
2023-09-05T12:08:33.662Z,98722.31
2023-09-05T12:09:39.355Z,98723.66
2023-09-05T12:10:52.450Z,98730.91
2023-09-05T12:12:15.288Z,98728.06
2023-09-05T12:13:19.362Z,98741.44
2023-09-05T12:14:22.227Z,98733.97
2023-09-05T12:15:40.369Z,98733.09
2023-09-05T12:16:48.707Z,98728.00
2023-09-05T12:17:51.729Z,98716.75
2023-09-05T12:19:02.293Z,98721.97
2023-09-05T12:20:11.705Z,98727.75
2023-09-05T12:21:15.247Z,98719.09
2023-09-05T12:22:32.308Z,98724.84
2023-09-05T12:23:35.178Z,98728.88
2023-09-05T12:24:37.758Z,98733.91
2023-09-05T12:25:56.656Z,98733.72
2023-09-05T12:27:01.268Z,98737.75
2023-09-05T12:28:21.591Z,98732.03
2023-09-05T12:29:38.969Z,98733.16
2023-09-05T12:30:41.657Z,98732.97
2023-09-05T12:31:45.888Z,98736.28
2023-09-05T12:32:48.650Z,98738.53
2023-09-05T12:33:51.336Z,98734.16
2023-09-05T12:34:55.079Z,98731.56
2023-09-05T12:35:57.896Z,98735.25
2023-09-05T12:37:00.756Z,98736.97
2023-09-05T12:38:14.235Z,98725.22
2023-09-05T12:39:17.070Z,98717.31
2023-09-05T12:40:19.976Z,98728.09
2023-09-05T12:41:22.678Z,98718.88
2023-09-05T12:42:26.588Z,98722.88
2023-09-05T12:43:29.374Z,98725.91
2023-09-05T12:44:32.106Z,98715.25
2023-09-05T12:45:34.819Z,98727.38
2023-09-05T12:46:37.653Z,98720.03
2023-09-05T12:47:41.852Z,98723.38
2023-09-05T12:48:45.114Z,98722.13
2023-09-05T12:50:04.095Z,98720.44